Data for 03/01/2015

Time Sea-Level Adjusted Pressure Absolute Pressure Temperature Relative Humidity Dew Point   
(mb) (inHg) (mb) (inHg) (C) (F) (%) (C) (F)
00:05 1022 30.18 851 25.13 -9.8 14.3 62 -15.9 3.4
00:10 1022 30.18 851 25.13 -9.8 14.4 61 -15.9 3.4
00:15 1022 30.18 851 25.13 -9.8 14.4 61 -16 3.1
00:20 1022 30.18 851 25.13 -9.7 14.5 61 -16 3.2
00:25 1022 30.18 851 25.13 -9.7 14.5 61 -16 3.2
00:30 1022 30.18 852 25.16 -9.8 14.4 61 -16 3.2
00:35 1022 30.18 852 25.16 -9.8 14.3 61 -16.1 3
00:40 1022 30.18 852 25.16 -9.8 14.3 61 -16 3.2
00:45 1022 30.18 852 25.16 -9.9 14.2 62 -15.9 3.4
00:50 1022 30.18 852 25.16 -10 13.9 62 -15.9 3.3
00:55 1023 30.21 852 25.16 -10.2 13.7 63 -15.9 3.3
01:00 1023 30.21 852 25.16 -10.3 13.4 63 -16.1 3
01:05 1023 30.21 852 25.16 -10.4 13.3 63 -16.2 2.8
01:10 1023 30.21 852 25.16 -10.3 13.4 62 -16.3 2.6
01:15 1023 30.21 852 25.16 -10.4 13.3 62 -16.4 2.6
01:20 1023 30.21 852 25.16 -10.5 13.2 61 -16.6 2.1
01:25 1023 30.21 852 25.16 -10.6 13 61 -16.7 2
01:30 1023 30.21 852 25.16 -10.6 12.9 61 -16.8 1.8
01:35 1023 30.21 852 25.16 -10.6 12.9 61 -16.7 2
01:40 1023 30.21 852 25.16 -10.7 12.8 62 -16.6 2.1
01:45 1023 30.21 852 25.16 -10.7 12.7 63 -16.5 2.2
01:50 1023 30.21 852 25.16 -10.8 12.5 63 -16.5 2.3
01:55 1023 30.21 852 25.16 -11 12.3 64 -16.5 2.3
02:00 1023 30.21 852 25.16 -11 12.2 64 -16.5 2.3
02:05 1023 30.21 852 25.16 -11.2 11.8 66 -16.3 2.7
02:10 1023 30.21 852 25.16 -11.6 11.1 69 -16.3 2.7
02:15 1023 30.21 852 25.16 -11.9 10.6 70 -16.3 2.6
02:20 1023 30.21 852 25.16 -11.9 10.6 70 -16.4 2.5
02:25 1023 30.21 852 25.16 -11.8 10.7 71 -16.1 3.1
02:30 1023 30.21 852 25.16 -11.8 10.8 71 -16.1 3
02:35 1023 30.21 852 25.16 -11.8 10.7 70 -16.2 2.9
02:40 1023 30.21 853 25.19 -11.8 10.7 71 -16.1 3.1
02:45 1023 30.21 853 25.19 -12 10.5 71 -16.2 2.8
02:50 1023 30.21 853 25.19 -12 10.4 70 -16.4 2.5
02:55 1023 30.21 853 25.19 -11.9 10.5 70 -16.4 2.5
03:00 1024 30.24 853 25.19 -12.1 10.2 72 -16.1 3
03:05 1024 30.24 853 25.19 -12.5 9.5 73 -16.4 2.5
03:10 1024 30.24 853 25.19 -12.7 9.1 74 -16.5 2.3
03:15 1024 30.24 853 25.19 -12.9 8.8 74 -16.6 2.1
03:20 1024 30.24 853 25.19 -13 8.6 73 -16.9 1.6
03:25 1024 30.24 853 25.19 -12.9 8.8 70 -17.2 1
03:30 1024 30.24 853 25.19 -12.6 9.3 65 -17.9 -0.2
03:35 1024 30.24 853 25.19 -12.2 10.1 60 -18.4 -1.1
03:40 1024 30.24 853 25.19 -11.8 10.7 59 -18.2 -0.8
03:45 1024 30.24 853 25.19 -11.8 10.8 59 -18.2 -0.8
03:50 1024 30.24 853 25.19 -11.8 10.7 63 -17.6 0.4
03:55 1024 30.24 853 25.19 -12.4 9.7 66 -17.5 0.6
04:00 1024 30.24 853 25.19 -12.7 9.1 67 -17.7 0.2
04:05 1024 30.24 853 25.19 -13.1 8.4 69 -17.6 0.3
04:10 1024 30.24 853 25.19 -13.1 8.4 69 -17.7 0.1
04:15 1024 30.24 853 25.19 -13.1 8.4 70 -17.5 0.5
04:20 1024 30.24 853 25.19 -13.1 8.4 70 -17.4 0.6
04:25 1024 30.24 853 25.19 -13.1 8.4 70 -17.6 0.4
04:30 1024 30.24 853 25.19 -13.3 8 70 -17.6 0.3
04:35 1024 30.24 853 25.19 -13.6 7.5 72 -17.6 0.3
04:40 1024 30.24 853 25.19 -13.7 7.3 72 -17.7 0.2
04:45 1024 30.24 853 25.19 -13.6 7.5 72 -17.7 0.1
04:50 1024 30.24 853 25.19 -13.4 7.8 70 -17.7 0.1
04:55 1024 30.24 853 25.19 -13.4 7.9 69 -17.8 -0.1
05:00 1024 30.24 853 25.19 -13.4 7.9 69 -17.9 -0.2
05:05 1024 30.24 853 25.19 -13.4 7.9 68 -18.1 -0.6
05:10 1024 30.24 853 25.19 -13.4 7.8 67 -18.3 -0.9
05:15 1024 30.24 853 25.19 -13.7 7.3 69 -18.2 -0.8
05:20 1024 30.24 853 25.19 -13.8 7.1 68 -18.5 -1.3
05:25 1024 30.24 853 25.19 -14 6.7 69 -18.5 -1.3
05:30 1024 30.24 853 25.19 -14.4 6.2 71 -18.5 -1.3
05:35 1024 30.24 853 25.19 -14.6 5.7 72 -18.6 -1.5
05:40 1024 30.24 853 25.19 -14.8 5.5 72 -18.7 -1.6
05:45 1024 30.24 853 25.19 -14.6 5.7 71 -18.8 -1.8
05:50 1024 30.24 853 25.19 -14.4 6 70 -18.7 -1.7
05:55 1024 30.24 853 25.19 -14.3 6.2 69 -18.9 -1.9
06:00 1024 30.24 853 25.19 -14.2 6.5 68 -18.8 -1.8
06:05 1024 30.24 853 25.19 -14.1 6.6 67 -19 -2.2
06:10 1024 30.24 853 25.19 -13.9 6.9 66 -19.1 -2.3
06:15 1024 30.24 853 25.19 -13.8 7.2 64 -19.2 -2.5
06:20 1024 30.24 853 25.19 -13.8 7.3 65 -19.1 -2.3
06:25 1024 30.24 853 25.19 -14 6.8 65 -19.2 -2.5
06:30 1024 30.24 853 25.19 -14.2 6.5 66 -19.1 -2.5
06:35 1024 30.24 853 25.19 -14.3 6.2 67 -19.2 -2.6
06:40 1024 30.24 853 25.19 -14.3 6.2 67 -19.3 -2.7
06:45 1024 30.24 853 25.19 -14.5 6 67 -19.3 -2.8
06:50 1024 30.24 853 25.19 -14.5 5.9 67 -19.4 -3
06:55 1024 30.24 853 25.19 -14.6 5.8 67 -19.5 -3
07:00 1024 30.24 853 25.19 -14.6 5.7 66 -19.6 -3.3
07:05 1024 30.24 853 25.19 -14.5 5.8 66 -19.5 -3.2
07:10 1024 30.24 853 25.19 -14.3 6.3 65 -19.5 -3.1
07:15 1024 30.24 853 25.19 -14.2 6.4 65 -19.5 -3
07:20 1024 30.24 853 25.19 -14.2 6.5 65 -19.4 -3
07:25 1024 30.24 853 25.19 -14.2 6.4 65 -19.4 -2.9
07:30 1024 30.24 853 25.19 -14.2 6.4 65 -19.4 -3
07:35 1024 30.24 853 25.19 -14.3 6.3 66 -19.4 -2.9
07:40 1024 30.24 853 25.19 -14.3 6.3 65 -19.4 -3
07:45 1024 30.24 853 25.19 -14.4 6 66 -19.4 -3
07:50 1024 30.24 853 25.19 -14.7 5.6 67 -19.5 -3.1
07:55 1024 30.24 853 25.19 -14.9 5.3 68 -19.5 -3.2
08:00 1024 30.24 853 25.19 -15 5.1 68 -19.6 -3.3
08:05 1024 30.24 853 25.19 -14.9 5.1 68 -19.6 -3.2
08:10 1024 30.24 853 25.19 -14.9 5.3 67 -19.7 -3.4
08:15 1024 30.24 853 25.19 -14.7 5.5 67 -19.5 -3.2
08:20 1024 30.24 853 25.19 -14.7 5.6 67 -19.6 -3.3
08:25 1024 30.24 853 25.19 -14.5 6 66 -19.5 -3.2
08:30 1024 30.24 853 25.19 -14.4 6.1 66 -19.5 -3
08:35 1024 30.24 853 25.19 -14.4 6.1 66 -19.5 -3
08:40 1024 30.24 853 25.19 -14.2 6.4 65 -19.5 -3.1
08:45 1024 30.24 853 25.19 -13.9 6.9 64 -19.4 -3
08:50 1024 30.24 853 25.19 -13.6 7.6 62 -19.4 -3
08:55 1024 30.24 853 25.19 -13.3 8.1 61 -19.3 -2.7
09:00 1024 30.24 853 25.19 -13 8.6 61 -19.1 -2.4
09:05 1024 30.24 853 25.19 -12.9 8.8 61 -18.9 -2.1
09:10 1024 30.24 854 25.22 -12.6 9.3 60 -18.8 -1.9
09:15 1024 30.24 854 25.22 -12.5 9.4 60 -18.9 -2
09:20 1024 30.24 854 25.22 -12.2 10 59 -18.8 -1.8
09:25 1024 30.24 854 25.22 -12 10.4 58 -18.7 -1.6
09:30 1024 30.24 854 25.22 -12 10.3 59 -18.6 -1.4
09:35 1025 30.27 854 25.22 -11.6 11.1 57 -18.5 -1.3
09:40 1025 30.27 854 25.22 -10.8 12.6 55 -18.1 -0.6
09:45 1025 30.27 854 25.22 -10.7 12.8 56 -17.9 -0.2
09:50 1025 30.27 854 25.22 -10.6 12.9 55 -17.9 -0.2
09:55 1025 30.27 854 25.22 -10.8 12.5 57 -17.8 -0
10:00 1025 30.27 854 25.22 -10 14 52 -18.1 -0.6
10:05 1025 30.27 854 25.22 -9.4 15.2 51 -17.8 -0
10:10 1025 30.27 854 25.22 -9.4 15.1 52 -17.4 0.7
10:15 1025 30.27 854 25.22 -9.2 15.5 51 -17.6 0.2
10:20 1025 30.27 854 25.22 -8.7 16.3 48 -17.8 -0
10:25 1024 30.24 854 25.22 -7.7 18.2 47 -17.1 1.2
10:30 1024 30.24 854 25.22 -7.5 18.5 45 -17.5 0.5
10:35 1024 30.24 854 25.22 -7.5 18.5 46 -17.1 1.2
10:40 1024 30.24 854 25.22 -7.2 19.1 44 -17.5 0.5
10:45 1024 30.24 854 25.22 -6.9 19.5 45 -17.1 1.2
10:50 1024 30.24 854 25.22 -6.3 20.6 42 -17.3 0.9
10:55 1024 30.24 853 25.19 -6.4 20.6 42 -17.2 1
11:00 1024 30.24 853 25.19 -6.4 20.4 41 -17.7 0.1
11:05 1024 30.24 853 25.19 -6.9 19.6 42 -17.8 0
11:10 1024 30.24 853 25.19 -6.2 20.8 40 -17.9 -0.3
11:15 1024 30.24 853 25.19 -5.7 21.7 38 -18 -0.3
11:20 1024 30.24 853 25.19 -5.4 22.3 38 -17.5 0.4
11:25 1024 30.24 853 25.19 -5.6 21.9 38 -17.9 -0.1
11:30 1024 30.24 853 25.19 -5.5 22.1 38 -17.8 -0.1
11:35 1024 30.24 853 25.19 -4.9 23.2 36 -17.9 -0.2
11:40 1024 30.24 853 25.19 -5.4 22.3 38 -17.6 0.4
11:45 1024 30.24 853 25.19 -4.8 23.3 36 -17.8 -0.1
11:50 1024 30.24 853 25.19 -4.6 23.8 35 -17.8 0
11:55 1024 30.24 853 25.19 -5.4 22.3 38 -17.7 0.1
12:00 1024 30.24 853 25.19 -4.7 23.5 35 -18 -0.3
12:05 1024 30.24 853 25.19 -4.5 24 36 -17.3 0.9
12:10 1024 30.24 853 25.19 -5.1 22.8 38 -17.4 0.6
12:15 1024 30.24 853 25.19 -5 23.1 37 -17.5 0.5
12:20 1024 30.24 853 25.19 -4.2 24.4 34 -18.1 -0.5
12:25 1023 30.21 853 25.19 -4.7 23.5 38 -17 1.3
12:30 1023 30.21 853 25.19 -3.9 25 36 -17.1 1.3
12:35 1023 30.21 853 25.19 -3.5 25.7 36 -16.5 2.3
12:40 1023 30.21 853 25.19 -3.1 26.4 35 -16.7 1.9
12:45 1023 30.21 852 25.16 -3 26.6 34 -16.9 1.6
12:50 1023 30.21 852 25.16 -3 26.5 35 -16.5 2.3
12:55 1023 30.21 852 25.16 -3 26.6 35 -16.3 2.7
13:00 1023 30.21 852 25.16 -2.7 27.1 35 -16.3 2.7
13:05 1023 30.21 852 25.16 -2.7 27.2 33 -16.8 1.7
13:10 1023 30.21 852 25.16 -2.7 27.1 33 -16.9 1.6
13:15 1023 30.21 852 25.16 -2.2 28 34 -16.3 2.7
13:20 1023 30.21 852 25.16 -2.6 27.3 34 -16.5 2.2
13:25 1023 30.21 852 25.16 -2 28.4 32 -16.8 1.8
13:30 1023 30.21 852 25.16 -1.4 29.5 30 -16.8 1.8
13:35 1023 30.21 852 25.16 -2 28.5 32 -16.5 2.3
13:40 1023 30.21 852 25.16 -2.6 27.3 33 -16.9 1.6
13:45 1023 30.21 852 25.16 -2.4 27.8 32 -17.1 1.3
13:50 1022 30.18 852 25.16 -2.7 27.1 33 -16.9 1.6
13:55 1022 30.18 851 25.13 -1.8 28.7 32 -16.6 2.1
14:00 1022 30.18 851 25.13 -1.7 29 32 -16.2 2.8
14:05 1022 30.18 851 25.13 -1.7 28.9 31 -16.8 1.7
14:10 1022 30.18 851 25.13 -1.7 29 32 -16.4 2.5
14:15 1022 30.18 851 25.13 -1.9 28.5 33 -16.1 3.1
14:20 1022 30.18 851 25.13 -1.3 29.7 31 -16.4 2.4
14:25 1022 30.18 851 25.13 -1.4 29.5 31 -16.4 2.4
14:30 1022 30.18 851 25.13 -1.4 29.4 33 -15.8 3.5
14:35 1022 30.18 851 25.13 -1 30.2 32 -15.8 3.6
14:40 1021 30.15 851 25.13 -0.8 30.6 32 -15.7 3.7
14:45 1021 30.15 851 25.13 -1.2 29.8 32 -16.1 3
14:50 1021 30.15 850 25.1 -1.4 29.5 31 -16.3 2.6
14:55 1021 30.15 850 25.1 -0.8 30.5 30 -16.3 2.7
15:00 1021 30.15 850 25.1 -0.4 31.3 30 -15.8 3.5
15:05 1021 30.15 850 25.1 -0.5 31.1 30 -15.9 3.4
15:10 1021 30.15 850 25.1 -0.7 30.7 32 -15.3 4.4
15:15 1021 30.15 850 25.1 -1 30.2 32 -15.8 3.6
15:20 1021 30.15 850 25.1 -0.6 30.8 30 -16.1 3.1
15:25 1021 30.15 850 25.1 -0.4 31.3 30 -16.2 2.9
15:30 1021 30.15 850 25.1 0.2 32.4 29 -16 3.2
15:35 1021 30.15 850 25.1 0.2 32.3 29 -15.9 3.5
15:40 1021 30.15 850 25.1 -0.4 31.4 31 -15.6 3.8
15:45 1020 30.12 850 25.1 -0.2 31.7 30 -15.7 3.8
15:50 1020 30.12 850 25.1 -0 31.9 29 -16.2 2.9
15:55 1020 30.12 850 25.1 0.4 32.7 28 -16 3.2
16:00 1020 30.12 850 25.1 0.1 32.2 29 -16 3.2
16:05 1020 30.12 850 25.1 -0.1 31.7 29 -16 3.2
16:10 1020 30.12 849 25.07 0.3 32.5 29 -15.7 3.7
16:15 1020 30.12 849 25.07 0.2 32.3 29 -15.8 3.5
16:20 1020 30.12 849 25.07 0.4 32.8 29 -15.8 3.6
16:25 1020 30.12 849 25.07 0.3 32.6 28 -16 3.1
16:30 1020 30.12 849 25.07 0.2 32.3 28 -16.3 2.7
16:35 1020 30.12 849 25.07 -0.6 30.9 31 -15.9 3.5
16:40 1020 30.12 849 25.07 -0.9 30.5 29 -16.6 2.1
16:45 1020 30.12 849 25.07 -0.1 31.7 28 -16.5 2.3
16:50 1020 30.12 849 25.07 -0.4 31.2 26 -17.6 0.3
16:55 1020 30.12 849 25.07 -1 30.2 28 -17.5 0.4
17:00 1020 30.12 849 25.07 -0.5 31.1 26 -17.7 0.1
17:05 1020 30.12 849 25.07 -0.2 31.6 26 -17.4 0.7
17:10 1019 30.09 849 25.07 0.3 32.5 26 -17.2 1
17:15 1019 30.09 849 25.07 0.6 33 25 -17.2 1
17:20 1019 30.09 849 25.07 0.5 32.9 24 -18 -0.5
17:25 1019 30.09 848 25.04 0.3 32.6 25 -17.8 -0.1
17:30 1019 30.09 848 25.04 0.5 32.9 24 -18.1 -0.5
17:35 1019 30.09 848 25.04 0.6 33.1 24 -17.9 -0.3
17:40 1019 30.09 848 25.04 0.6 33 26 -16.8 1.7
17:45 1019 30.09 848 25.04 0.7 33.2 28 -16.1 3
17:50 1019 30.09 848 25.04 0.5 32.8 32 -14.6 5.8
17:55 1019 30.09 848 25.04 -0.3 31.4 32 -15.2 4.7
18:00 1019 30.09 848 25.04 -1.1 30 35 -14.6 5.8
18:05 1019 30.09 848 25.04 -0.8 30.6 33 -15.1 4.8
18:10 1019 30.09 848 25.04 -0.4 31.3 31 -15.5 4.2
18:15 1018 30.06 848 25.04 -0.3 31.5 31 -15.4 4.3
18:20 1018 30.06 848 25.04 -0.2 31.6 32 -15.1 4.8
18:25 1018 30.06 848 25.04 -0.2 31.7 32 -15 5
18:30 1018 30.06 847 25.01 -0.4 31.4 32 -15.2 4.7
18:35 1018 30.06 847 25.01 -0.3 31.5 31 -15.3 4.5
18:40 1018 30.06 847 25.01 -0.4 31.2 33 -15 5
18:45 1018 30.06 847 25.01 -0.7 30.7 34 -14.8 5.4
18:50 1018 30.06 847 25.01 -0.9 30.3 35 -14.5 5.9
18:55 1018 30.06 847 25.01 -1.3 29.7 37 -14.1 6.6
19:00 1018 30.06 847 25.01 -1.8 28.8 39 -14 6.8
19:05 1018 30.06 847 25.01 -2.2 28.1 39 -14.4 6.1
19:10 1018 30.06 847 25.01 -2.7 27.2 40 -14.5 5.8
19:15 1018 30.06 847 25.01 -2.8 26.9 41 -14.4 6.1
19:20 1018 30.06 847 25.01 -2.9 26.8 43 -13.9 7
19:25 1018 30.06 847 25.01 -3.1 26.4 43 -13.9 7
19:30 1018 30.06 847 25.01 -3.2 26.2 43 -14.2 6.5
19:35 1018 30.06 847 25.01 -3.2 26.2 45 -13.7 7.4
19:40 1018 30.06 847 25.01 -3.5 25.7 44 -14 6.9
19:45 1018 30.06 847 25.01 -3.8 25.2 48 -13.4 7.9
19:50 1018 30.06 847 25.01 -4.1 24.7 48 -13.4 7.8
19:55 1018 30.06 847 25.01 -4.1 24.6 50 -13.1 8.5
20:00 1018 30.06 847 25.01 -4.2 24.4 52 -12.8 9
20:05 1018 30.06 847 25.01 -4.5 23.9 52 -12.9 8.7
20:10 1018 30.06 847 25.01 -4.7 23.6 53 -12.8 8.9
20:15 1017 30.03 847 25.01 -4.9 23.2 54 -12.8 8.9
20:20 1017 30.03 847 25.01 -5.1 22.8 55 -12.9 8.8
20:25 1017 30.03 847 25.01 -5.1 22.8 53 -13.4 7.9
20:30 1017 30.03 847 25.01 -5.1 22.8 53 -13.4 8
20:35 1017 30.03 847 25.01 -5.4 22.4 54 -13.3 8.1
20:40 1017 30.03 846 24.98 -5.7 21.8 56 -13.1 8.4
20:45 1017 30.03 846 24.98 -5.8 21.5 57 -13.1 8.5
20:50 1017 30.03 846 24.98 -5.7 21.7 58 -12.8 8.9
20:55 1017 30.03 846 24.98 -6 21.2 59 -12.8 8.9
21:00 1017 30.03 846 24.98 -6.2 20.8 60 -12.8 8.9
21:05 1017 30.03 846 24.98 -6.3 20.6 60 -12.9 8.8
21:10 1017 30.03 846 24.98 -6.3 20.6 58 -13.3 8.1
21:15 1017 30.03 846 24.98 -5.9 21.3 53 -14 6.8
21:20 1017 30.03 846 24.98 -5.6 22 52 -13.9 7.1
21:25 1017 30.03 846 24.98 -5.5 22 53 -13.8 7.2
21:30 1017 30.03 846 24.98 -5.6 21.8 53 -13.8 7.2
21:35 1017 30.03 846 24.98 -5.7 21.8 52 -14.1 6.6
21:40 1017 30.03 846 24.98 -5.7 21.7 55 -13.5 7.7
21:45 1017 30.03 846 24.98 -6 21.3 56 -13.4 7.9
21:50 1017 30.03 846 24.98 -6.2 20.9 57 -13.4 7.9
21:55 1016 30 846 24.98 -6.3 20.6 58 -13.3 8.1
22:00 1016 30 846 24.98 -6.4 20.6 57 -13.5 7.7
22:05 1016 30 846 24.98 -6.2 20.8 56 -13.7 7.4
22:10 1016 30 846 24.98 -6.2 20.8 56 -13.7 7.4
22:15 1016 30 846 24.98 -6.3 20.7 56 -13.7 7.4
22:20 1016 30 845 24.95 -6.3 20.6 55 -14 6.8
22:25 1016 30 845 24.95 -6.3 20.7 54 -14.1 6.7
22:30 1016 30 845 24.95 -6.2 20.8 54 -14.1 6.6
22:35 1016 30 845 24.95 -6.2 20.9 53 -14.2 6.4
22:40 1016 30 845 24.95 -6.1 21 52 -14.3 6.2
22:45 1016 30 845 24.95 -5.9 21.4 51 -14.5 6
22:50 1016 30 845 24.95 -5.9 21.5 51 -14.5 5.9
22:55 1016 30 845 24.95 -6 21.3 52 -14.4 6
23:00 1016 30 845 24.95 -5.9 21.3 51 -14.6 5.8
23:05 1016 30 845 24.95 -5.8 21.5 50 -14.7 5.6
23:10 1016 30 845 24.95 -5.9 21.4 51 -14.5 5.9
23:15 1016 30 845 24.95 -6 21.2 51 -14.7 5.6
23:20 1016 30 845 24.95 -6 21.1 51 -14.6 5.8
23:25 1016 30 845 24.95 -6 21.2 50 -14.8 5.3
23:30 1016 30 845 24.95 -6.2 20.9 50 -14.9 5.2
23:35 1016 30 845 24.95 -6.2 20.8 51 -14.7 5.5
23:40 1016 30 845 24.95 -6.2 20.8 51 -14.8 5.3
23:45 1016 30 845 24.95 -6.2 20.9 51 -14.8 5.3
23:50 1016 30 845 24.95 -6.2 20.8 51 -14.8 5.4
23:55 1016 30 845 24.95 -6.3 20.7 50 -15 5
24:00 1016 30 845 24.95 -6.2 20.9 50 -15 5